Time;durP1;ratioP1;P1;durP2;ratioP2;P2;SDS_P1;SDS_P2;PMS_P1;PMS_P2;Temp;Humidity;BMP_temperature;BMP_pressure;BME280_temperature;BME280_humidity;BME280_pressure;Samples;Min_cycle;Max_cycle;Signal;HPM_P1;HPM_P2
2022/05/16 00:00:43;;;;;;;23.23;20.02;;;;;;;;;;4937221;29;20048;-71
2022/05/16 00:03:35;;;;;;;23.48;15.63;;;;;;;;;;4937144;29;20452;-71
2022/05/16 00:06:06;;;;;;;18.73;15.20;;;;;;;;;;4937154;29;20058;-71
2022/05/16 00:08:34;;;;;;;16.90;14.02;;;;;;;;;;4919723;29;20392;-71
2022/05/16 00:11:04;;;;;;;15.60;14.00;;;;;;;;;;4936716;29;20070;-71
2022/05/16 00:13:41;;;;;;;16.67;14.85;;;;;;;;;;4936945;29;20050;-72
2022/05/16 00:16:11;;;;;;;22.05;16.73;;;;;;;;;;4937419;29;20068;-72
2022/05/16 00:18:45;;;;;;;21.05;15.88;;;;;;;;;;4937122;29;20392;-72
2022/05/16 00:21:22;;;;;;;17.70;15.57;;;;;;;;;;4936944;29;20422;-72
2022/05/16 00:23:50;;;;;;;32.20;25.77;;;;;;;;;;4936959;29;20055;-72
2022/05/16 00:26:42;;;;;;;26.08;20.85;;;;;;;;;;4936671;29;20054;-72
2022/05/16 00:29:35;;;;;;;24.00;20.58;;;;;;;;;;4936765;29;20043;-72
2022/05/16 00:32:08;;;;;;;20.15;16.08;;;;;;;;;;4936621;29;20090;-71
2022/05/16 00:34:43;;;;;;;18.20;14.82;;;;;;;;;;4936794;29;20048;-71
2022/05/16 00:37:14;;;;;;;19.88;14.57;;;;;;;;;;4936696;29;20052;-72
2022/05/16 00:39:51;;;;;;;19.75;16.13;;;;;;;;;;4936801;29;20063;-72
2022/05/16 00:42:23;;;;;;;19.00;15.48;;;;;;;;;;4936137;29;20082;-72
2022/05/16 00:45:02;;;;;;;17.65;15.45;;;;;;;;;;4936396;29;20422;-71
2022/05/16 00:47:29;;;;;;;17.63;15.07;;;;;;;;;;4936685;29;20051;-71
2022/05/16 00:50:05;;;;;;;19.42;15.30;;;;;;;;;;4936253;29;20414;-71
2022/05/16 00:52:45;;;;;;;19.92;15.82;;;;;;;;;;4919225;29;20482;-71
2022/05/16 00:55:42;;;;;;;20.80;17.08;;;;;;;;;;4936389;29;20099;-71
2022/05/16 00:58:37;;;;;;;22.77;16.67;;;;;;;;;;4936426;29;20103;-71
2022/05/16 01:04:49;;;;;;;23.00;15.98;;;;;;;;;;4936434;29;20388;-72
2022/05/16 01:07:34;;;;;;;21.15;15.15;;;;;;;;;;4936716;29;20135;-72
2022/05/16 01:10:09;;;;;;;18.90;14.73;;;;;;;;;;4936297;29;20070;-71
2022/05/16 01:12:43;;;;;;;;;;;;;;;;;;4936680;29;20048;-71
2022/05/16 01:15:36;;;;;;;18.67;15.70;;;;;;;;;;4936442;29;19926;-71
2022/05/16 01:18:05;;;;;;;17.88;15.63;;;;;;;;;;4935666;29;20043;-71
2022/05/16 01:20:44;;;;;;;16.70;14.32;;;;;;;;;;4936043;29;20046;-71
2022/05/16 01:23:14;;;;;;;18.75;14.70;;;;;;;;;;4935114;29;20052;-71
2022/05/16 01:25:49;;;;;;;15.68;13.90;;;;;;;;;;4936180;29;20051;-71
2022/05/16 01:28:26;;;;;;;17.65;13.50;;;;;;;;;;4936161;29;20048;-72
2022/05/16 01:30:55;;;;;;;18.45;13.65;;;;;;;;;;4936097;29;20075;-71
2022/05/16 01:33:27;;;;;;;18.00;13.88;;;;;;;;;;4935913;29;20044;-71
2022/05/16 01:36:03;;;;;;;19.83;14.30;;;;;;;;;;4935904;29;20075;-71
2022/05/16 01:38:31;;;;;;;17.02;14.60;;;;;;;;;;4936165;29;20055;-71
2022/05/16 01:41:12;;;;;;;19.08;14.68;;;;;;;;;;4935835;29;20047;-71
2022/05/16 01:44:04;;;;;;;17.67;14.55;;;;;;;;;;4936089;29;20048;-72
2022/05/16 01:46:36;;;;;;;18.52;15.15;;;;;;;;;;4939571;29;20047;-71
2022/05/16 01:49:09;;;;;;;18.45;14.40;;;;;;;;;;4939861;29;20040;-71
2022/05/16 01:51:41;;;;;;;16.85;15.15;;;;;;;;;;4939677;29;20039;-71
2022/05/16 01:54:14;;;;;;;20.20;15.95;;;;;;;;;;4939610;29;20043;-71
2022/05/16 01:56:46;;;;;;;20.23;15.25;;;;;;;;;;4939560;29;20072;-71
2022/05/16 01:59:20;;;;;;;16.75;14.75;;;;;;;;;;4939718;29;20036;-71
2022/05/16 02:01:52;;;;;;;16.92;15.05;;;;;;;;;;4939549;29;20040;-71
2022/05/16 02:04:25;;;;;;;18.30;15.27;;;;;;;;;;4939498;29;20031;-72
2022/05/16 02:06:56;;;;;;;16.55;14.15;;;;;;;;;;4939757;29;20074;-71
2022/05/16 02:09:29;;;;;;;17.92;14.25;;;;;;;;;;4939456;29;20043;-71
2022/05/16 02:12:23;;;;;;;16.70;14.88;;;;;;;;;;4939180;29;20127;-71
2022/05/16 02:14:53;;;;;;;19.40;15.57;;;;;;;;;;4939217;29;20050;-71
2022/05/16 02:17:27;;;;;;;22.70;16.35;;;;;;;;;;4939380;29;20082;-71
2022/05/16 02:20:00;;;;;;;19.02;16.27;;;;;;;;;;4939020;29;20043;-71
2022/05/16 02:25:44;;;;;;;18.42;16.35;;;;;;;;;;4901205;29;20077;-71
2022/05/16 02:28:14;;;;;;;18.75;15.38;;;;;;;;;;4901200;29;20131;-71
2022/05/16 02:30:48;;;;;;;18.57;16.67;;;;;;;;;;4900859;29;20060;-71
2022/05/16 02:33:21;;;;;;;20.55;16.48;;;;;;;;;;4901013;29;20053;-72
2022/05/16 02:35:49;;;;;;;21.27;17.08;;;;;;;;;;4901205;29;20045;-71
2022/05/16 02:38:18;;;;;;;21.15;16.63;;;;;;;;;;4901188;29;20388;-72
2022/05/16 02:44:17;;;;;;;21.02;18.63;;;;;;;;;;4900817;29;20127;-71
2022/05/16 02:47:13;;;;;;;20.15;18.00;;;;;;;;;;4900803;29;20072;-71
2022/05/16 02:53:30;;;;;;;22.95;19.08;;;;;;;;;;4900659;29;20045;-71
2022/05/16 02:56:23;;;;;;;21.42;18.25;;;;;;;;;;4899672;29;20100;-71
2022/05/16 02:59:16;;;;;;;23.58;18.50;;;;;;;;;;4900564;29;20128;-72
2022/05/16 03:01:48;;;;;;;21.98;18.40;;;;;;;;;;4900480;29;20044;-71
2022/05/16 03:04:22;;;;;;;25.20;18.25;;;;;;;;;;4900555;29;20048;-71
2022/05/16 03:06:50;;;;;;;21.98;18.55;;;;;;;;;;4900682;29;20480;-71
2022/05/16 03:09:43;;;;;;;22.08;17.83;;;;;;;;;;4900376;29;20040;-72
2022/05/16 03:12:36;;;;;;;21.75;18.02;;;;;;;;;;4900191;29;20500;-72
2022/05/16 03:15:07;;;;;;;20.67;17.45;;;;;;;;;;4900213;29;20131;-72
2022/05/16 03:17:40;;;;;;;23.55;19.23;;;;;;;;;;4900305;29;20060;-72
2022/05/16 03:20:14;;;;;;;23.00;18.65;;;;;;;;;;4900399;29;20452;-72
2022/05/16 03:22:41;;;;;;;21.23;18.77;;;;;;;;;;4901315;29;20052;-72
2022/05/16 03:25:13;;;;;;;20.23;18.02;;;;;;;;;;4938040;29;20050;-71
2022/05/16 03:27:41;;;;;;;26.08;18.05;;;;;;;;;;4938219;29;20039;-71
2022/05/16 03:30:20;;;;;;;21.92;18.55;;;;;;;;;;4937940;29;20044;-72
2022/05/16 03:33:13;;;;;;;25.10;19.08;;;;;;;;;;4938521;29;20521;-72
2022/05/16 03:35:43;;;;;;;22.52;18.83;;;;;;;;;;4937961;29;20094;-70
2022/05/16 03:41:32;;;;;;;21.83;19.52;;;;;;;;;;4937639;29;20051;-70
2022/05/16 03:44:09;;;;;;;21.42;18.67;;;;;;;;;;4919881;29;20418;-71
2022/05/16 03:46:44;;;;;;;27.02;18.50;;;;;;;;;;4937271;29;20554;-71
2022/05/16 03:49:13;;;;;;;22.50;18.42;;;;;;;;;;4937467;29;20075;-71
2022/05/16 03:51:43;;;;;;;22.55;19.98;;;;;;;;;;4937546;29;20039;-71
2022/05/16 03:54:19;;;;;;;25.33;19.50;;;;;;;;;;4937194;29;20106;-71
2022/05/16 03:56:54;;;;;;;21.08;18.67;;;;;;;;;;4937565;29;20479;-71
2022/05/16 03:59:22;;;;;;;23.38;18.95;;;;;;;;;;4937462;29;20337;-72
2022/05/16 04:01:52;;;;;;;21.50;19.13;;;;;;;;;;4936691;29;20044;-71
2022/05/16 04:04:20;;;;;;;24.25;19.75;;;;;;;;;;4936944;29;20043;-71
2022/05/16 04:06:48;;;;;;;23.77;18.55;;;;;;;;;;4936980;29;20044;-71
2022/05/16 04:09:18;;;;;;;23.92;18.88;;;;;;;;;;4936857;29;20040;-71
2022/05/16 04:12:10;;;;;;;21.40;18.65;;;;;;;;;;4936930;29;20051;-71
2022/05/16 04:14:39;;;;;;;20.88;18.60;;;;;;;;;;4937061;29;20048;-71
2022/05/16 04:17:06;;;;;;;21.30;18.67;;;;;;;;;;4936864;29;20043;-71
2022/05/16 04:19:34;;;;;;;24.88;18.70;;;;;;;;;;4936666;29;20075;-72
2022/05/16 04:22:02;;;;;;;19.83;17.73;;;;;;;;;;4935441;29;20043;-72
2022/05/16 04:24:33;;;;;;;21.98;17.45;;;;;;;;;;4936793;29;20553;-72
2022/05/16 04:27:02;;;;;;;20.60;16.63;;;;;;;;;;4936896;29;20044;-71
2022/05/16 04:29:30;;;;;;;22.52;18.00;;;;;;;;;;4935714;29;20039;-70
2022/05/16 04:31:57;;;;;;;19.30;17.13;;;;;;;;;;4934761;29;20487;-70
2022/05/16 04:34:25;;;;;;;20.42;17.38;;;;;;;;;;4936870;29;20044;-71
2022/05/16 04:37:00;;;;;;;20.58;17.08;;;;;;;;;;4936635;29;20123;-71
2022/05/16 04:39:28;;;;;;;18.30;16.08;;;;;;;;;;4936879;29;20044;-72
2022/05/16 04:45:16;;;;;;;18.27;16.10;;;;;;;;;;4936733;29;20074;-72
2022/05/16 04:48:10;;;;;;;23.08;18.05;;;;;;;;;;4936307;29;20490;-72
2022/05/16 04:50:37;;;;;;;18.63;16.70;;;;;;;;;;4919461;29;20040;-72
2022/05/16 04:53:12;;;;;;;18.98;16.70;;;;;;;;;;4936377;29;20066;-72
2022/05/16 04:55:44;;;;;;;22.85;17.50;;;;;;;;;;4935892;29;20043;-72
2022/05/16 04:58:20;;;;;;;19.38;17.00;;;;;;;;;;4936369;29;20056;-72
2022/05/16 05:00:52;;;;;;;20.80;17.17;;;;;;;;;;4935968;29;20039;-73
2022/05/16 05:03:30;;;;;;;19.73;17.38;;;;;;;;;;4936022;29;20103;-73
2022/05/16 05:06:23;;;;;;;20.63;17.40;;;;;;;;;;4935811;29;20040;-72
2022/05/16 05:08:51;;;;;;;20.27;17.90;;;;;;;;;;4934579;29;20534;-72
2022/05/16 05:14:32;;;;;;;22.58;18.75;;;;;;;;;;4936032;29;20047;-72
2022/05/16 05:17:07;;;;;;;19.50;15.93;;;;;;;;;;4936412;29;20069;-72
2022/05/16 05:19:40;;;;;;;19.70;16.30;;;;;;;;;;4935385;29;20075;-72
2022/05/16 05:22:08;;;;;;;17.60;15.75;;;;;;;;;;4936028;29;20076;-73
2022/05/16 05:24:35;;;;;;;18.15;15.90;;;;;;;;;;4935924;29;20047;-73
2022/05/16 05:27:05;;;;;;;21.90;17.98;;;;;;;;;;4936027;29;20044;-72
2022/05/16 05:29:41;;;;;;;16.98;15.15;;;;;;;;;;4936427;29;20043;-72
2022/05/16 05:32:09;;;;;;;18.92;16.92;;;;;;;;;;4935921;29;20075;-73
2022/05/16 05:34:39;;;;;;;17.80;14.23;;;;;;;;;;4935905;29;20044;-73
2022/05/16 05:37:18;;;;;;;16.70;14.98;;;;;;;;;;4936153;29;20052;-73
2022/05/16 05:39:50;;;;;;;16.05;13.85;;;;;;;;;;4919199;29;20090;-73
2022/05/16 05:42:19;;;;;;;14.95;12.95;;;;;;;;;;4935316;29;20043;-73
2022/05/16 05:44:50;;;;;;;14.85;12.43;;;;;;;;;;4935617;29;20043;-73
2022/05/16 05:47:18;;;;;;;16.27;12.73;;;;;;;;;;4919003;29;20484;-73
2022/05/16 05:49:45;;;;;;;17.95;12.57;;;;;;;;;;4935796;29;20486;-73
2022/05/16 05:52:17;;;;;;;16.13;11.75;;;;;;;;;;4935775;29;20051;-73
2022/05/16 05:54:46;;;;;;;15.75;11.95;;;;;;;;;;4936209;29;20055;-72
2022/05/16 05:57:16;;;;;;;19.02;11.40;;;;;;;;;;4935785;29;20051;-73
2022/05/16 05:59:45;;;;;;;13.32;10.63;;;;;;;;;;4935834;29;20421;-73
2022/05/16 06:02:20;;;;;;;11.38;10.18;;;;;;;;;;4935847;29;20051;-73
2022/05/16 06:04:49;;;;;;;13.07;10.30;;;;;;;;;;4935661;29;20075;-73
2022/05/16 06:07:18;;;;;;;10.65;9.55;;;;;;;;;;4935704;29;20517;-73
2022/05/16 06:09:54;;;;;;;11.60;9.27;;;;;;;;;;4935792;29;20052;-73
2022/05/16 06:12:27;;;;;;;10.57;9.18;;;;;;;;;;4935721;29;20044;-73
2022/05/16 06:14:57;;;;;;;10.27;8.48;;;;;;;;;;4935421;29;20051;-73
2022/05/16 06:17:31;;;;;;;9.90;8.90;;;;;;;;;;4935973;29;20078;-73
2022/05/16 06:20:00;;;;;;;11.70;9.07;;;;;;;;;;4935811;29;20443;-73
2022/05/16 06:22:34;;;;;;;10.48;8.95;;;;;;;;;;4935211;29;20514;-73
2022/05/16 06:27:48;;;;;;;10.77;9.73;;;;;;;;;;4935624;29;19922;-74
2022/05/16 06:30:52;;;;;;;10.73;8.88;;;;;;;;;;4935986;29;20406;-74
2022/05/16 06:33:21;;;;;;;10.27;8.45;;;;;;;;;;4939055;29;20113;-74
2022/05/16 06:35:53;;;;;;;9.13;8.30;;;;;;;;;;4938637;29;20040;-73
2022/05/16 06:38:27;;;;;;;9.43;7.85;;;;;;;;;;4938996;29;20059;-73
2022/05/16 06:40:55;;;;;;;8.85;7.97;;;;;;;;;;4938821;29;20514;-73
2022/05/16 06:43:26;;;;;;;11.45;8.38;;;;;;;;;;4938445;29;20040;-73
2022/05/16 06:45:57;;;;;;;9.23;8.30;;;;;;;;;;4938793;29;20044;-73
2022/05/16 06:48:26;;;;;;;12.68;8.55;;;;;;;;;;4938586;29;20103;-73
2022/05/16 06:50:58;;;;;;;11.00;8.55;;;;;;;;;;4938136;29;20495;-73
2022/05/16 06:53:33;;;;;;;12.95;8.65;;;;;;;;;;4938543;29;20052;-74
2022/05/16 06:56:00;;;;;;;11.90;9.05;;;;;;;;;;4938074;29;20146;-73
2022/05/16 06:58:38;;;;;;;9.73;8.73;;;;;;;;;;4937844;29;20047;-73
2022/05/16 07:01:30;;;;;;;10.27;8.77;;;;;;;;;;4938869;29;20131;-73
2022/05/16 07:04:22;;;;;;;10.82;8.50;;;;;;;;;;4938451;29;20056;-73
2022/05/16 07:06:52;;;;;;;10.85;9.65;;;;;;;;;;4938364;29;20086;-74
2022/05/16 07:09:25;;;;;;;11.48;9.20;;;;;;;;;;4938127;29;20047;-72
2022/05/16 07:11:54;;;;;;;11.13;8.40;;;;;;;;;;4921284;29;20443;-72
2022/05/16 07:14:28;;;;;;;9.70;8.30;;;;;;;;;;4937936;29;20513;-73
2022/05/16 07:16:56;;;;;;;13.95;8.95;;;;;;;;;;4938607;29;20051;-73
2022/05/16 07:19:29;;;;;;;12.70;8.63;;;;;;;;;;4937836;29;20094;-73
2022/05/16 07:22:09;;;;;;;11.27;9.60;;;;;;;;;;4938370;29;20048;-72
2022/05/16 07:24:40;;;;;;;12.43;9.13;;;;;;;;;;4937762;29;20135;-72
2022/05/16 07:29:56;;;;;;;11.63;10.20;;;;;;;;;;4937513;29;20384;-72
2022/05/16 07:32:35;;;;;;;12.80;10.95;;;;;;;;;;4938138;29;20082;-73
2022/05/16 07:35:05;;;;;;;10.23;9.23;;;;;;;;;;4937769;29;20086;-72
2022/05/16 07:37:34;;;;;;;13.70;9.55;;;;;;;;;;4937658;29;20047;-73
2022/05/16 07:40:11;;;;;;;10.75;8.98;;;;;;;;;;4937914;29;20101;-72
2022/05/16 07:42:39;;;;;;;12.93;9.60;;;;;;;;;;4937103;29;20067;-73
2022/05/16 07:45:09;;;;;;;12.70;9.05;;;;;;;;;;4937161;29;20039;-72
2022/05/16 07:47:40;;;;;;;10.05;8.52;;;;;;;;;;4937577;29;20044;-73
2022/05/16 07:50:10;;;;;;;9.65;8.75;;;;;;;;;;4937310;29;20070;-72
2022/05/16 07:52:46;;;;;;;12.80;10.93;;;;;;;;;;4937203;29;20051;-73
2022/05/16 07:55:16;;;;;;;13.35;11.02;;;;;;;;;;4937392;29;20047;-72
2022/05/16 07:57:50;;;;;;;10.23;9.13;;;;;;;;;;4937355;29;20090;-73
2022/05/16 08:00:19;;;;;;;10.60;8.20;;;;;;;;;;4937319;29;20107;-73
2022/05/16 08:02:50;;;;;;;8.52;7.63;;;;;;;;;;4937129;29;20039;-73
2022/05/16 08:05:18;;;;;;;9.57;7.97;;;;;;;;;;4937525;29;20152;-73
2022/05/16 08:10:33;;;;;;;9.70;6.93;;;;;;;;;;4936938;29;20054;-73
2022/05/16 08:13:26;;;;;;;11.68;9.55;;;;;;;;;;4937020;29;20048;-74
2022/05/16 08:15:54;;;;;;;17.65;15.75;;;;;;;;;;4936989;29;20052;-73
2022/05/16 08:18:26;;;;;;;8.50;7.43;;;;;;;;;;4937208;29;20044;-73
2022/05/16 08:20:59;;;;;;;11.38;7.65;;;;;;;;;;4936849;29;20051;-72
2022/05/16 08:23:29;;;;;;;8.35;7.40;;;;;;;;;;4937061;29;20056;-74
2022/05/16 08:29:08;;;;;;;12.93;8.02;;;;;;;;;;4936723;29;20082;-73
2022/05/16 08:31:38;;;;;;;14.30;12.23;;;;;;;;;;4936354;29;20043;-73
2022/05/16 08:34:11;;;;;;;10.23;7.32;;;;;;;;;;4936839;29;20047;-75
2022/05/16 08:42:19;;;;;;;10.57;6.95;;;;;;;;;;4936253;29;20047;-72
2022/05/16 08:44:56;;;;;;;10.70;7.93;;;;;;;;;;4936829;29;20044;-73
2022/05/16 08:47:48;;;;;;;12.68;7.60;;;;;;;;;;4936605;29;20047;-73
2022/05/16 08:50:28;;;;;;;14.05;8.60;;;;;;;;;;4936753;29;20127;-72
2022/05/16 08:53:09;;;;;;;10.32;8.18;;;;;;;;;;4936277;29;20051;-73
2022/05/16 08:55:42;;;;;;;9.25;7.22;;;;;;;;;;4935746;29;20071;-72
2022/05/16 08:58:34;;;;;;;8.95;8.07;;;;;;;;;;4936255;29;20063;-73
2022/05/16 09:01:27;;;;;;;10.80;7.38;;;;;;;;;;4936230;29;20126;-73
2022/05/16 09:04:20;;;;;;;9.15;7.22;;;;;;;;;;4936017;29;20055;-74
2022/05/16 09:07:14;;;;;;;8.77;7.18;;;;;;;;;;4936472;29;20118;-74
2022/05/16 09:09:47;;;;;;;10.48;9.32;;;;;;;;;;4936330;29;20043;-74
2022/05/16 09:12:36;;;;;;;10.47;7.43;;;;;;;;;;4936328;29;20071;-71
2022/05/16 09:15:13;;;;;;;10.60;7.13;;;;;;;;;;4936100;29;20056;-73
2022/05/16 09:18:00;;;;;;;8.98;7.38;;;;;;;;;;4936169;29;20043;-73
2022/05/16 09:20:33;;;;;;;9.95;7.20;;;;;;;;;;4935955;29;20055;-72
2022/05/16 09:23:11;;;;;;;8.43;7.10;;;;;;;;;;4918747;29;20134;-72
2022/05/16 09:25:48;;;;;;;10.20;8.60;;;;;;;;;;4935732;29;20048;-73
2022/05/16 09:28:37;;;;;;;8.77;7.00;;;;;;;;;;4936154;29;20115;-72
2022/05/16 09:31:09;;;;;;;9.18;6.68;;;;;;;;;;4935756;29;20582;-73
2022/05/16 09:33:43;;;;;;;7.63;5.65;;;;;;;;;;4936006;29;20078;-72
2022/05/16 09:36:14;;;;;;;7.57;5.45;;;;;;;;;;4935730;29;20103;-72
2022/05/16 09:38:49;;;;;;;16.65;5.75;;;;;;;;;;4936071;29;20039;-73
2022/05/16 09:41:22;;;;;;;9.75;5.13;;;;;;;;;;4936161;29;20099;-73
2022/05/16 09:44:14;;;;;;;7.53;5.95;;;;;;;;;;4935717;29;20052;-74
2022/05/16 09:46:43;;;;;;;7.80;5.30;;;;;;;;;;4935974;29;20035;-73
2022/05/16 09:49:15;;;;;;;8.23;4.95;;;;;;;;;;4919303;29;20410;-74
2022/05/16 09:51:55;;;;;;;7.80;5.10;;;;;;;;;;4935846;29;20455;-74
2022/05/16 09:54:25;;;;;;;11.10;7.32;;;;;;;;;;4935657;29;20071;-73
2022/05/16 09:56:55;;;;;;;9.20;7.18;;;;;;;;;;4935638;29;20048;-73
2022/05/16 09:59:44;;;;;;;7.35;5.47;;;;;;;;;;4935928;29;20091;-73
2022/05/16 10:02:11;;;;;;;5.95;4.82;;;;;;;;;;4936160;29;20052;-73
2022/05/16 10:04:55;;;;;;;6.20;4.70;;;;;;;;;;4935491;29;20395;-73
2022/05/16 10:07:30;;;;;;;8.85;4.60;;;;;;;;;;4939159;29;20054;-73
2022/05/16 10:10:22;;;;;;;6.15;3.92;;;;;;;;;;4939572;29;20043;-73
2022/05/16 10:13:16;;;;;;;5.40;4.13;;;;;;;;;;4939462;29;20043;-73
2022/05/16 10:15:44;;;;;;;8.98;3.50;;;;;;;;;;4939194;29;20182;-73
2022/05/16 10:18:28;;;;;;;5.05;4.00;;;;;;;;;;4939040;29;20051;-73
2022/05/16 10:21:03;;;;;;;5.93;2.65;;;;;;;;;;4939152;29;20434;-73
2022/05/16 10:23:34;;;;;;;8.02;3.70;;;;;;;;;;4938813;29;20139;-73
2022/05/16 10:26:27;;;;;;;5.07;2.90;;;;;;;;;;4938548;29;20035;-73
2022/05/16 10:29:03;;;;;;;6.35;3.80;;;;;;;;;;4939070;29;20530;-72
2022/05/16 10:34:43;;;;;;;16.67;5.35;;;;;;;;;;4938928;29;20487;-72
2022/05/16 10:37:13;;;;;;;10.32;3.20;;;;;;;;;;4891727;29;20098;-73
2022/05/16 10:39:46;;;;;;;19.35;9.02;;;;;;;;;;4938749;29;20071;-73
2022/05/16 10:42:16;;;;;;;19.27;11.48;;;;;;;;;;4938711;29;20221;-73
2022/05/16 10:45:05;;;;;;;5.55;3.03;;;;;;;;;;4939077;29;20043;-73
2022/05/16 10:47:57;;;;;;;10.98;5.38;;;;;;;;;;4938848;29;20321;-73
2022/05/16 10:50:46;;;;;;;6.57;4.43;;;;;;;;;;4938602;29;20111;-73
2022/05/16 10:53:21;;;;;;;14.10;3.70;;;;;;;;;;4938801;29;20078;-73
2022/05/16 10:55:52;;;;;;;20.05;6.82;;;;;;;;;;4938168;29;20063;-72
2022/05/16 10:58:31;;;;;;;60.58;20.27;;;;;;;;;;4921599;29;20103;-74
2022/05/16 11:01:17;;;;;;;4.97;2.90;;;;;;;;;;4938548;29;20061;-72
2022/05/16 11:03:49;;;;;;;4.47;2.90;;;;;;;;;;4921787;29;20043;-73
2022/05/16 11:06:38;;;;;;;38.58;11.55;;;;;;;;;;4938431;29;20039;-72
2022/05/16 11:09:30;;;;;;;27.33;10.15;;;;;;;;;;4938117;29;20069;-73
2022/05/16 11:12:22;;;;;;;26.63;12.70;;;;;;;;;;4938407;29;20070;-72
2022/05/16 11:15:15;;;;;;;23.73;12.65;;;;;;;;;;4937344;29;20046;-72
2022/05/16 11:18:08;;;;;;;37.00;18.25;;;;;;;;;;4936887;29;20495;-72
2022/05/16 11:20:43;;;;;;;39.58;19.48;;;;;;;;;;4937695;29;20100;-72
2022/05/16 11:23:22;;;;;;;7.40;4.15;;;;;;;;;;4936547;29;20055;-72
2022/05/16 11:26:15;;;;;;;8.35;4.25;;;;;;;;;;4938103;29;20063;-72
2022/05/16 11:29:17;;;;;;;11.00;4.72;;;;;;;;;;4938262;29;20067;-72
2022/05/16 11:31:51;;;;;;;3.50;2.60;;;;;;;;;;4937820;29;20454;-71
2022/05/16 11:34:45;;;;;;;8.02;3.45;;;;;;;;;;4937695;29;20048;-71
2022/05/16 11:37:20;;;;;;;7.35;2.80;;;;;;;;;;4937963;29;20044;-70
2022/05/16 11:40:03;;;;;;;4.50;2.75;;;;;;;;;;4937878;29;20126;-73
2022/05/16 11:42:41;;;;;;;5.72;4.00;;;;;;;;;;4937104;29;20071;-73
2022/05/16 11:45:27;;;;;;;5.05;2.60;;;;;;;;;;4937310;29;20490;-71
2022/05/16 11:48:00;;;;;;;6.70;3.75;;;;;;;;;;4937168;29;20215;-72
2022/05/16 11:51:03;;;;;;;10.63;5.03;;;;;;;;;;4936190;29;20095;-71
2022/05/16 11:53:50;;;;;;;7.03;4.68;;;;;;;;;;4924643;29;20072;-72
2022/05/16 12:02:29;;;;;;;8.93;4.97;;;;;;;;;;4937312;29;20036;-72
2022/05/16 12:05:02;;;;;;;9.65;6.10;;;;;;;;;;4936055;29;20498;-71
2022/05/16 12:07:38;;;;;;;7.22;4.53;;;;;;;;;;4937248;29;20036;-72
2022/05/16 12:10:11;;;;;;;5.50;2.90;;;;;;;;;;4920333;29;20106;-72
2022/05/16 12:13:10;;;;;;;8.98;3.22;;;;;;;;;;4937322;29;20040;-72
2022/05/16 12:16:02;;;;;;;9.32;5.50;;;;;;;;;;4937319;29;20048;-72
2022/05/16 12:18:40;;;;;;;6.38;3.45;;;;;;;;;;4937058;29;20047;-72
2022/05/16 12:21:27;;;;;;;16.50;4.68;;;;;;;;;;4936804;29;20546;-72
2022/05/16 12:24:03;;;;;;;7.18;3.13;;;;;;;;;;4936731;29;20277;-72
2022/05/16 12:26:57;;;;;;;8.23;3.80;;;;;;;;;;4936982;29;20044;-72
2022/05/16 12:29:30;;;;;;;5.72;3.00;;;;;;;;;;4936395;29;20134;-72
2022/05/16 12:32:01;;;;;;;5.35;4.03;;;;;;;;;;4936581;29;20040;-72
2022/05/16 12:34:35;;;;;;;7.93;3.35;;;;;;;;;;4936798;29;20046;-72
2022/05/16 12:37:05;;;;;;;7.35;3.90;;;;;;;;;;4936861;29;20138;-72
2022/05/16 12:39:42;;;;;;;8.50;3.65;;;;;;;;;;4936452;29;20050;-71
2022/05/16 12:45:08;;;;;;;5.10;3.15;;;;;;;;;;4936830;29;20043;-72
2022/05/16 12:47:55;;;;;;;6.47;4.47;;;;;;;;;;4936358;29;20107;-71
2022/05/16 12:50:48;;;;;;;14.00;10.45;;;;;;;;;;4936488;29;20599;-72
2022/05/16 12:53:19;;;;;;;7.47;3.28;;;;;;;;;;4936616;29;20384;-72
2022/05/16 12:56:10;;;;;;;4.40;3.60;;;;;;;;;;4936230;29;20048;-72
2022/05/16 12:59:03;;;;;;;4.90;3.30;;;;;;;;;;4936445;29;20415;-72
2022/05/16 13:01:42;;;;;;;7.40;3.10;;;;;;;;;;4936433;29;20071;-71
2022/05/16 13:04:31;;;;;;;7.38;5.13;;;;;;;;;;4936405;29;20039;-71
2022/05/16 13:07:03;;;;;;;9.65;3.53;;;;;;;;;;4936060;29;20043;-71
2022/05/16 13:09:41;;;;;;;16.42;11.02;;;;;;;;;;4935932;29;20048;-71
2022/05/16 13:12:33;;;;;;;10.27;6.22;;;;;;;;;;4936168;29;20071;-71
2022/05/16 13:15:24;;;;;;;7.32;4.32;;;;;;;;;;4936102;29;20566;-71
2022/05/16 13:17:59;;;;;;;7.45;3.50;;;;;;;;;;4935967;29;20043;-71
2022/05/16 13:20:35;;;;;;;8.98;3.63;;;;;;;;;;4936100;29;20070;-70
2022/05/16 13:23:03;;;;;;;5.47;2.92;;;;;;;;;;4935101;29;20047;-70
2022/05/16 13:31:51;;;;;;;7.22;4.10;;;;;;;;;;4936284;29;20811;-70
2022/05/16 13:34:44;;;;;;;27.88;6.45;;;;;;;;;;4936090;29;20046;-70
2022/05/16 13:37:17;;;;;;;4.13;3.20;;;;;;;;;;4936192;29;20051;-70
2022/05/16 13:39:50;;;;;;;5.45;3.35;;;;;;;;;;4934832;29;20063;-71
2022/05/16 13:42:43;;;;;;;6.32;3.20;;;;;;;;;;4940082;29;20486;-71
2022/05/16 13:45:12;;;;;;;8.73;3.72;;;;;;;;;;4939350;29;20050;-70
2022/05/16 13:47:44;;;;;;;6.65;3.17;;;;;;;;;;4939085;29;20120;-70
2022/05/16 13:50:22;;;;;;;4.10;3.00;;;;;;;;;;4939466;29;20048;-71
2022/05/16 13:52:51;;;;;;;14.40;5.07;;;;;;;;;;4938968;29;20118;-71
2022/05/16 13:55:29;;;;;;;5.90;3.53;;;;;;;;;;4939293;29;20429;-72
2022/05/16 13:58:01;;;;;;;6.18;4.18;;;;;;;;;;4939583;29;20521;-72
2022/05/16 14:00:39;;;;;;;5.38;3.60;;;;;;;;;;4939336;29;20040;-71
2022/05/16 14:03:26;;;;;;;5.30;3.10;;;;;;;;;;4939696;29;20403;-71
2022/05/16 14:05:55;;;;;;;6.38;3.92;;;;;;;;;;4938618;29;20046;-71
2022/05/16 14:08:25;;;;;;;7.55;2.92;;;;;;;;;;4939507;29;20044;-71
2022/05/16 14:10:57;;;;;;;6.20;3.63;;;;;;;;;;4939449;29;20046;-70
2022/05/16 14:13:29;;;;;;;4.68;2.88;;;;;;;;;;4939091;29;20098;-72
2022/05/16 14:16:21;;;;;;;3.88;2.75;;;;;;;;;;4939285;29;20048;-72
2022/05/16 14:18:49;;;;;;;5.07;3.00;;;;;;;;;;4931933;29;20048;-71
2022/05/16 14:21:16;;;;;;;3.30;2.70;;;;;;;;;;4928759;29;20043;-71
2022/05/16 14:23:58;;;;;;;7.00;2.65;;;;;;;;;;4938495;29;20447;-72
2022/05/16 14:26:31;;;;;;;4.32;2.92;;;;;;;;;;4939521;29;20083;-71
2022/05/16 14:29:01;;;;;;;7.10;2.90;;;;;;;;;;4938405;29;20478;-71
2022/05/16 14:31:32;;;;;;;6.70;4.53;;;;;;;;;;4938408;29;20559;-69
2022/05/16 14:34:18;;;;;;;4.85;2.67;;;;;;;;;;4938071;29;20620;-72
2022/05/16 14:36:46;;;;;;;12.43;7.07;;;;;;;;;;4918310;29;20140;-73
2022/05/16 14:39:20;;;;;;;6.53;4.00;;;;;;;;;;4919981;29;20055;-71
2022/05/16 14:41:55;;;;;;;5.60;3.45;;;;;;;;;;4919502;29;20044;-72
2022/05/16 14:44:31;;;;;;;7.78;3.03;;;;;;;;;;4919154;29;20055;-71
2022/05/16 14:47:03;;;;;;;5.50;2.72;;;;;;;;;;4919350;29;20047;-72
2022/05/16 14:49:33;;;;;;;5.38;2.60;;;;;;;;;;4935600;29;20131;-70
2022/05/16 14:52:02;;;;;;;5.70;3.35;;;;;;;;;;4937730;29;20115;-71
2022/05/16 14:54:34;;;;;;;4.78;2.70;;;;;;;;;;4938180;29;20107;-71
2022/05/16 14:57:04;;;;;;;6.65;3.80;;;;;;;;;;4938270;29;20510;-72
2022/05/16 14:59:31;;;;;;;8.48;3.00;;;;;;;;;;4938637;29;20051;-72
2022/05/16 15:04:47;;;;;;;7.10;2.97;;;;;;;;;;4934960;29;20040;-72
2022/05/16 15:07:15;;;;;;;8.73;3.38;;;;;;;;;;4937664;29;20055;-73
2022/05/16 15:09:43;;;;;;;6.00;3.40;;;;;;;;;;4937967;29;20380;-72
2022/05/16 15:12:12;;;;;;;4.82;2.90;;;;;;;;;;4937612;29;20071;-70
2022/05/16 15:14:40;;;;;;;5.97;3.20;;;;;;;;;;4937619;29;20040;-72
2022/05/16 15:17:08;;;;;;;7.20;3.63;;;;;;;;;;4937856;29;20048;-72
2022/05/16 15:19:39;;;;;;;4.97;3.75;;;;;;;;;;4937735;29;20056;-73
2022/05/16 15:22:14;;;;;;;7.65;3.08;;;;;;;;;;4938288;29;20085;-72
2022/05/16 15:24:52;;;;;;;8.95;3.78;;;;;;;;;;4937569;29;20134;-73
2022/05/16 15:27:21;;;;;;;5.40;3.45;;;;;;;;;;4937413;29;20048;-72
2022/05/16 15:29:51;;;;;;;5.00;3.70;;;;;;;;;;4935505;29;20085;-73
2022/05/16 15:32:20;;;;;;;8.65;3.80;;;;;;;;;;4935002;29;20047;-72
2022/05/16 15:34:48;;;;;;;36.60;23.63;;;;;;;;;;4937125;29;20046;-73
2022/05/16 15:37:18;;;;;;;12.38;7.63;;;;;;;;;;4937226;29;20052;-71
2022/05/16 15:39:49;;;;;;;16.75;9.57;;;;;;;;;;4933825;29;20059;-72
2022/05/16 15:42:18;;;;;;;6.60;3.45;;;;;;;;;;4936184;29;20093;-72
2022/05/16 15:44:51;;;;;;;7.72;2.90;;;;;;;;;;4918031;29;20139;-71
2022/05/16 15:47:26;;;;;;;3.17;2.70;;;;;;;;;;4918430;29;20118;-71
2022/05/16 15:49:56;;;;;;;7.10;5.32;;;;;;;;;;4918372;29;20048;-72
2022/05/16 15:52:30;;;;;;;11.55;7.57;;;;;;;;;;4918691;29;20138;-71
2022/05/16 15:54:59;;;;;;;6.45;4.28;;;;;;;;;;4918210;29;20075;-71
2022/05/16 15:57:27;;;;;;;5.70;3.45;;;;;;;;;;4917658;29;20059;-71
2022/05/16 15:59:56;;;;;;;16.35;12.65;;;;;;;;;;4918052;29;20088;-71
2022/05/16 16:02:23;;;;;;;11.15;6.90;;;;;;;;;;4917801;29;20511;-72
2022/05/16 16:10:25;;;;;;;5.00;3.10;;;;;;;;;;4918244;29;20127;-71
2022/05/16 16:13:13;;;;;;;8.13;4.88;;;;;;;;;;4917979;29;20517;-73
2022/05/16 16:15:41;;;;;;;15.50;9.90;;;;;;;;;;4918020;29;20040;-72
2022/05/16 16:18:12;;;;;;;17.75;10.60;;;;;;;;;;4917691;29;20563;-71
2022/05/16 16:20:42;;;;;;;7.47;4.30;;;;;;;;;;4917261;29;20051;-72
2022/05/16 16:23:10;;;;;;;9.05;4.28;;;;;;;;;;4916749;29;20051;-73
2022/05/16 16:25:42;;;;;;;5.85;3.33;;;;;;;;;;4922545;29;20797;-72
2022/05/16 16:28:16;;;;;;;7.40;4.00;;;;;;;;;;4916907;29;20048;-71